Syosyun — JD2406 — position and weather

sailwx.info

Track history (hours):
 
Tides and Currents Weather Stations Pressure Air Temp Water Temp Dewpoint Dewpoint Depression Visibility Wind Speed Wind Dir Waves Ship Positions

Syosyun

Last reported at 2016-Jul-26 14:21 UTC. Time now 2016-Jul-27 01:50 UTC.
Position N 34°43' E 139°39'.

Length 74 m; draft 4 m.

Type: Cargo ship. MMSI: 431000201.

Date/timePositionNaut miles runAvg speedWind from/ knotsBaromVisibWave heightAir tempDewpointWater temp
2016-Jul-26 14:21N 34°43' E 139°39'7 8.4
2016-Jul-26 13:31N 34°47' E 139°46'11 7.8
2016-Jul-26 12:07N 34°53' E 139°57'711.3
2016-Jul-26 11:31N 34°57' E 140°04'2811.7
2016-Jul-26 09:06N 35°14' E 140°31'  
2016-Jul-20 15:08N 35°42' E 140°54'6 9.7
2016-Jul-20 14:33N 35°38' E 140°51'1210.9
2016-Jul-20 13:27N 35°28' E 140°42'1211.3
2016-Jul-20 12:25N 35°18' E 140°34'2411.2
2016-Jul-20 10:16N 35°02' E 140°12'1411.5
2016-Jul-20 09:04N 34°54' E 139°58'  
Track history (hours):
 
Tides and Currents Weather Stations Pressure Air Temp Water Temp Dewpoint Dewpoint Depression Visibility Wind Speed Wind Dir Waves Ship Positions

Syosyun

Last reported at 2016-Jul-26 14:21 UTC. Time now 2016-Jul-27 01:50 UTC.
Position N 34°43' E 139°39'.

Length 74 m; draft 4 m.

Type: Cargo ship. MMSI: 431000201.

Date/timePositionNaut miles runAvg speedWind from/ knotsBaromVisibWave heightAir tempDewpointWater temp
2016-Jul-26 14:21N 34°43' E 139°39'7 8.4
2016-Jul-26 13:31N 34°47' E 139°46'11 7.8
2016-Jul-26 12:07N 34°53' E 139°57'711.3
2016-Jul-26 11:31N 34°57' E 140°04'2811.7
2016-Jul-26 09:06N 35°14' E 140°31'  
2016-Jul-20 15:08N 35°42' E 140°54'6 9.7
2016-Jul-20 14:33N 35°38' E 140°51'1210.9
2016-Jul-20 13:27N 35°28' E 140°42'1211.3
2016-Jul-20 12:25N 35°18' E 140°34'2411.2
2016-Jul-20 10:16N 35°02' E 140°12'1411.5
2016-Jul-20 09:04N 34°54' E 139°58'  

Dump ship's entire track history